createdAt,value
2023-01-05T00:00:01.077Z,21.8
2023-01-05T00:05:55.501Z,16.7
2023-01-05T00:11:56.766Z,18.4
2023-01-05T00:17:48.350Z,18.9
2023-01-05T00:23:40.494Z,22.3
2023-01-05T00:29:43.196Z,18.3
2023-01-05T00:35:36.493Z,19.8
2023-01-05T00:41:29.692Z,12.9
2023-01-05T00:47:20.575Z,18.6
2023-01-05T00:53:22.736Z,18.8
2023-01-05T00:59:21.411Z,18.3
2023-01-05T01:05:12.458Z,18.7
2023-01-05T01:11:08.584Z,17.8
2023-01-05T01:17:04.947Z,21.4
2023-01-05T01:22:55.694Z,19.2
2023-01-05T01:29:57.536Z,20.1
2023-01-05T01:35:59.935Z,19.8
2023-01-05T01:41:52.766Z,16.3
2023-01-05T01:47:44.482Z,22.1
2023-01-05T01:53:36.457Z,25.6
2023-01-05T01:59:30.359Z,19.3
2023-01-05T02:05:21.584Z,23.8
2023-01-05T02:11:14.316Z,24
2023-01-05T02:17:07.528Z,19.4
2023-01-05T02:22:59.065Z,18.2
2023-01-05T02:28:51.243Z,20.7
2023-01-05T02:34:45.123Z,24.7
2023-01-05T02:40:36.534Z,22.2
2023-01-05T02:46:29.876Z,20.6
2023-01-05T02:52:22.231Z,24.1
2023-01-05T02:58:15.099Z,22.9
2023-01-05T03:04:11.903Z,25.3
2023-01-05T03:10:03.666Z,19.5
2023-01-05T03:15:54.732Z,22.5
2023-01-05T03:21:47.220Z,24.8
2023-01-05T03:27:41.953Z,19.2
2023-01-05T03:33:33.409Z,21
2023-01-05T03:39:27.389Z,21.8
2023-01-05T03:45:19.757Z,22.7
2023-01-05T03:51:11.162Z,21.4
2023-01-05T03:57:04.932Z,22.7
2023-01-05T04:02:58.274Z,24.1
2023-01-05T04:08:57.217Z,24.2
2023-01-05T04:14:54.295Z,22.5
2023-01-05T04:20:48.461Z,22
2023-01-05T04:26:40.913Z,25.7
2023-01-05T04:32:31.174Z,24.6
2023-01-05T04:38:34.818Z,24.1
2023-01-05T04:44:26.448Z,28
2023-01-05T04:50:20.196Z,20.2
2023-01-05T04:56:13.264Z,25.2
2023-01-05T05:02:06.259Z,25.1
2023-01-05T05:07:58.981Z,24.5
2023-01-05T05:14:03.170Z,24.2
2023-01-05T05:20:13.568Z,23.9
2023-01-05T05:26:05.388Z,30.9
2023-01-05T05:31:58.364Z,23.1
2023-01-05T05:37:58.812Z,23.2
2023-01-05T05:43:50.535Z,28.5
2023-01-05T05:49:47.844Z,23.1
2023-01-05T05:55:41.153Z,28.2
2023-01-05T06:01:48.672Z,29.7
2023-01-05T06:07:41.368Z,29.3
2023-01-05T06:13:34.086Z,28.3
2023-01-05T06:19:26.130Z,23.3
2023-01-05T06:25:18.367Z,28.8
2023-01-05T06:31:11.376Z,29.6
2023-01-05T06:37:10.622Z,23.5
2023-01-05T06:43:04.815Z,32.1
2023-01-05T06:48:56.176Z,26.8
2023-01-05T06:54:49.270Z,29
2023-01-05T07:00:42.594Z,26.1
2023-01-05T07:06:38.588Z,24.8
2023-01-05T07:12:31.547Z,26.9
2023-01-05T07:18:25.053Z,23.3
2023-01-05T07:24:19.954Z,26.7
2023-01-05T07:30:16.933Z,29.1
2023-01-05T07:36:10.385Z,25.1
2023-01-05T07:42:07.037Z,26.6
2023-01-05T07:48:01.507Z,25.4
2023-01-05T07:53:52.606Z,29.6
2023-01-05T07:59:44.611Z,26.4
2023-01-05T08:05:37.362Z,27.5
2023-01-05T08:11:29.319Z,35.1
2023-01-05T08:17:19.425Z,38.6
2023-01-05T08:23:09.281Z,26.5
2023-01-05T08:29:14.421Z,29
2023-01-05T08:35:06.179Z,29.4
2023-01-05T08:41:01.281Z,27.4
2023-01-05T08:46:51.898Z,32.9
2023-01-05T08:52:45.067Z,28.6
2023-01-05T08:58:38.298Z,35.3
2023-01-05T09:04:34.163Z,25.8
2023-01-05T09:10:26.532Z,36.5
2023-01-05T09:23:03.833Z,32.9
2023-01-05T09:28:56.400Z,31.7
2023-01-05T09:34:50.422Z,34.6
2023-01-05T09:40:43.233Z,36.2
2023-01-05T09:46:39.144Z,35.3
2023-01-05T09:52:46.716Z,35.3
2023-01-05T09:58:43.951Z,36.4
2023-01-05T10:04:59.948Z,35.6
2023-01-05T10:10:52.523Z,41.4
2023-01-05T10:16:53.590Z,34.1
2023-01-05T10:23:28.283Z,33.6
2023-01-05T10:29:18.713Z,32.6
2023-01-05T10:36:07.572Z,34.5
2023-01-05T10:42:05.091Z,36.1
2023-01-05T10:47:59.068Z,28
2023-01-05T10:53:52.221Z,36.7
2023-01-05T10:59:45.248Z,28.4
2023-01-05T11:12:17.979Z,27
2023-01-05T11:24:53.110Z,33.8
2023-01-05T11:30:45.180Z,29.3
2023-01-05T11:36:37.256Z,26.2
2023-01-05T11:42:31.171Z,29.3
2023-01-05T11:48:21.937Z,28.1
2023-01-05T11:54:33.760Z,28.4
2023-01-05T12:00:58.294Z,27.9
2023-01-05T12:07:14.511Z,23.7
2023-01-05T12:13:22.479Z,22.6
2023-01-05T12:26:20.028Z,22.7
2023-01-05T12:39:48.931Z,28.2
2023-01-05T12:45:44.286Z,26.4
2023-01-05T12:51:45.347Z,23.6
2023-01-05T12:57:36.708Z,29.1
2023-01-05T13:03:36.761Z,26.7
2023-01-05T13:09:27.560Z,26.1
2023-01-05T13:15:21.627Z,30.7
2023-01-05T13:21:19.545Z,24.8
2023-01-05T13:27:09.117Z,26.1
2023-01-05T13:33:01.414Z,23.2
2023-01-05T13:38:51.765Z,23.5
2023-01-05T13:44:43.746Z,28.5
2023-01-05T13:50:38.035Z,24.3
2023-01-05T13:56:46.920Z,22.2
2023-01-05T14:02:39.790Z,22.6
2023-01-05T14:08:34.670Z,26.1
2023-01-05T14:20:21.877Z,24.1
2023-01-05T14:26:14.014Z,25.3
2023-01-05T14:32:06.340Z,29.9
2023-01-05T14:37:57.174Z,28.1
2023-01-05T14:43:50.103Z,23.7
2023-01-05T14:49:41.835Z,29
2023-01-05T14:55:45.990Z,31.3
2023-01-05T15:01:35.344Z,25.4
2023-01-05T15:07:26.193Z,28.4
2023-01-05T15:19:08.721Z,30.1
2023-01-05T15:24:59.407Z,35.5
2023-01-05T15:30:50.352Z,24.4
2023-01-05T15:36:41.662Z,24.2
2023-01-05T15:42:32.503Z,27.4
2023-01-05T15:48:24.838Z,23.5
2023-01-05T15:54:19.890Z,23.3
2023-01-05T16:00:14.407Z,23.9
2023-01-05T16:06:04.739Z,26.7
2023-01-05T16:11:56.627Z,29.1
2023-01-05T16:17:50.014Z,21.5
2023-01-05T16:23:42.659Z,27.1
2023-01-05T16:29:35.662Z,29.9
2023-01-05T16:35:27.767Z,32.5
2023-01-05T16:41:18.515Z,36.9
2023-01-05T16:47:09.917Z,25.3
2023-01-05T16:53:02.683Z,31.6
2023-01-05T16:58:55.033Z,29.4
2023-01-05T17:04:47.992Z,34.7
2023-01-05T17:10:38.964Z,32.4
2023-01-05T17:16:32.513Z,34.4
2023-01-05T17:22:24.314Z,31.1
2023-01-05T17:28:15.102Z,35
2023-01-05T17:34:06.057Z,33.2
2023-01-05T17:39:58.215Z,35.2
2023-01-05T17:45:50.411Z,26.7
2023-01-05T17:51:40.850Z,31.3
2023-01-05T17:57:31.098Z,36.7
2023-01-05T18:03:23.335Z,33.6
2023-01-05T18:09:12.685Z,27.2
2023-01-05T18:15:03.112Z,31.2
2023-01-05T18:20:55.312Z,30.6
2023-01-05T18:26:47.458Z,27.4
2023-01-05T18:32:43.419Z,31.4
2023-01-05T18:38:34.710Z,28.9
2023-01-05T18:44:24.763Z,22.2
2023-01-05T18:50:15.347Z,23.3
2023-01-05T18:56:08.219Z,19.7
2023-01-05T19:01:59.761Z,17.5
2023-01-05T19:07:49.620Z,14.9
2023-01-05T19:13:40.682Z,12.7
2023-01-05T19:19:34.658Z,14
2023-01-05T19:25:25.600Z,19.2
2023-01-05T19:31:16.353Z,18.3
2023-01-05T19:37:06.928Z,16
2023-01-05T19:42:56.801Z,18.3
2023-01-05T19:48:48.194Z,20.1
2023-01-05T19:54:39.128Z,18
2023-01-05T20:00:29.443Z,16.1
2023-01-05T20:06:21.041Z,14.1
2023-01-05T20:12:19.980Z,15.5
2023-01-05T20:18:09.577Z,11.1
2023-01-05T20:24:00.582Z,9.4
2023-01-05T20:29:53.703Z,16
2023-01-05T20:35:45.105Z,18.9
2023-01-05T20:41:35.611Z,18.9
2023-01-05T20:47:29.869Z,16.3
2023-01-05T20:53:32.914Z,41.4
2023-01-05T20:59:24.906Z,26.8
2023-01-05T21:05:15.932Z,17.3
2023-01-05T21:11:06.623Z,18.9
2023-01-05T21:16:57.723Z,21
2023-01-05T21:22:48.486Z,20.5
2023-01-05T21:28:39.491Z,22.2
2023-01-05T21:34:29.909Z,15.2
2023-01-05T21:40:22.258Z,13.6
2023-01-05T21:46:13.082Z,25.1
2023-01-05T21:52:03.256Z,19
2023-01-05T21:57:53.836Z,13.6
2023-01-05T22:03:44.372Z,21.9
2023-01-05T22:09:37.887Z,14.3
2023-01-05T22:15:28.516Z,43.2
2023-01-05T22:21:22.314Z,32.5
2023-01-05T22:27:13.977Z,21
2023-01-05T22:33:10.333Z,20
2023-01-05T22:39:03.566Z,17.9
2023-01-05T22:44:53.747Z,14.9
2023-01-05T22:50:46.936Z,15.9
2023-01-05T22:56:40.596Z,12.7
2023-01-05T23:02:31.677Z,12.1
2023-01-05T23:08:22.948Z,20
2023-01-05T23:14:14.179Z,14.1
2023-01-05T23:20:08.176Z,11.6
2023-01-05T23:25:59.164Z,12.6
2023-01-05T23:31:49.937Z,9.8
2023-01-05T23:37:40.240Z,10.6
2023-01-05T23:43:32.434Z,10.4
2023-01-05T23:49:23.119Z,9.3
2023-01-05T23:55:12.701Z,11.7
